Time;durP1;ratioP1;P1;durP2;ratioP2;P2;SDS_P1;SDS_P2;PMS_P1;PMS_P2;Temp;Humidity;BMP_temperature;BMP_pressure;BME280_temperature;BME280_humidity;BME280_pressure;Samples;Min_cycle;Max_cycle;Signal;HPM_P1;HPM_P2
2021/07/27 00:00:12;;;;;;;29.60;21.58;;;;;;;20.31;72.57;101059.22;5072743;28;20072;-64
2021/07/27 00:02:40;;;;;;;34.63;24.17;;;;;;;20.27;72.77;101058.22;5072460;28;20064;-63
2021/07/27 00:05:08;;;;;;;31.38;22.88;;;;;;;20.25;73.07;101063.28;5072221;28;20509;-64
2021/07/27 00:07:38;;;;;;;32.03;24.88;;;;;;;20.23;72.95;101071.13;5071556;28;20522;-64
2021/07/27 00:10:07;;;;;;;30.45;22.63;;;;;;;20.22;73.23;101072.25;5072340;28;20405;-63
2021/07/27 00:12:35;;;;;;;26.33;20.10;;;;;;;20.25;73.01;101066.03;5072506;28;20063;-63
2021/07/27 00:15:03;;;;;;;33.83;25.60;;;;;;;20.20;72.98;101069.81;5072293;28;20063;-62
2021/07/27 00:17:31;;;;;;;38.08;26.83;;;;;;;20.20;72.78;101071.75;5072181;28;20513;-64
2021/07/27 00:19:59;;;;;;;37.75;26.73;;;;;;;20.18;72.95;101071.28;5071323;28;20032;-63
2021/07/27 00:22:26;;;;;;;28.00;20.15;;;;;;;20.21;72.59;101067.84;5071685;28;20049;-63
2021/07/27 00:24:54;;;;;;;32.97;24.58;;;;;;;20.18;72.87;101065.75;5072159;28;20056;-63
2021/07/27 00:27:21;;;;;;;36.17;27.63;;;;;;;20.15;73.11;101066.38;5072172;28;20439;-64
2021/07/27 00:29:50;;;;;;;37.85;27.80;;;;;;;20.20;72.97;101058.75;5071325;28;20403;-64
2021/07/27 00:32:18;;;;;;;40.60;28.48;;;;;;;20.17;73.08;101058.56;5072070;28;20055;-64
2021/07/27 00:34:45;;;;;;;38.97;28.67;;;;;;;20.10;73.22;101056.28;5071652;28;20070;-60
2021/07/27 00:37:17;;;;;;;38.53;27.38;;;;;;;20.05;73.38;101067.53;5071851;28;20048;-63
2021/07/27 00:39:44;;;;;;;33.67;23.90;;;;;;;20.08;73.18;101068.84;5071710;28;20507;-59
2021/07/27 00:42:14;;;;;;;39.28;26.85;;;;;;;20.05;73.34;101066.72;5072265;28;20040;-63
2021/07/27 00:44:42;;;;;;;38.30;27.98;;;;;;;20.04;73.63;101067.88;5071964;28;20080;-63
2021/07/27 00:47:09;;;;;;;37.97;27.42;;;;;;;20.03;73.47;101072.56;5058236;28;20051;-65
2021/07/27 00:49:38;;;;;;;22.20;16.52;;;;;;;20.08;73.09;101066.88;5071927;28;20057;-64
2021/07/27 00:52:06;;;;;;;36.00;27.38;;;;;;;20.08;73.38;101077.13;5053695;28;20033;-64
2021/07/27 00:54:34;;;;;;;31.95;25.48;;;;;;;20.04;73.30;101068.69;5054027;28;20032;-65
2021/07/27 00:57:02;;;;;;;28.33;21.35;;;;;;;20.07;73.28;101069.97;5053585;28;20052;-65
2021/07/27 00:59:30;;;;;;;35.55;26.73;;;;;;;20.06;73.13;101062.81;5054226;28;20047;-64
2021/07/27 01:01:57;;;;;;;30.65;21.80;;;;;;;20.04;73.17;101065.13;5071896;28;20090;-64
2021/07/27 01:04:25;;;;;;;32.55;24.30;;;;;;;20.02;73.20;101059.09;5071441;28;20541;-61
2021/07/27 01:06:54;;;;;;;36.30;25.80;;;;;;;20.00;73.24;101060.22;5071763;28;20044;-64
2021/07/27 01:09:21;;;;;;;28.50;19.73;;;;;;;20.04;73.02;101060.38;5071572;28;20521;-64
2021/07/27 01:11:49;;;;;;;36.05;25.98;;;;;;;20.03;73.21;101063.47;5054165;28;20045;-64
2021/07/27 01:14:16;;;;;;;35.47;26.77;;;;;;;20.02;73.07;101051.59;5071418;28;20036;-64
2021/07/27 01:16:44;;;;;;;32.63;25.13;;;;;;;19.99;73.40;101053.06;5071875;28;20143;-64
2021/07/27 01:19:40;;;;;;;28.38;20.80;;;;;;;20.00;73.16;101040.84;5071488;28;20044;-64
2021/07/27 01:44:00;;;;;;;30.08;20.77;;;;;;;19.97;73.26;101011.09;5075235;28;19928;-63
2021/07/27 01:46:34;;;;;;;29.40;22.77;;;;;;;19.96;73.08;101006.72;5074636;28;20056;-64
2021/07/27 01:49:02;;;;;;;23.33;16.88;;;;;;;19.99;73.12;101008.81;5074519;28;20064;-64
2021/07/27 01:51:31;;;;;;;30.05;20.23;;;;;;;19.99;73.06;101017.09;5074755;28;20036;-65
2021/07/27 01:54:02;;;;;;;26.33;19.92;;;;;;;19.98;73.29;101018.22;5074743;28;20071;-64
2021/07/27 01:56:30;;;;;;;21.48;15.68;;;;;;;19.99;73.13;101010.78;5057041;28;20406;-64
2021/07/27 01:58:57;;;;;;;29.67;20.90;;;;;;;19.95;73.04;101007.84;5074917;28;20434;-64
2021/07/27 02:01:27;;;;;;;23.67;17.02;;;;;;;19.95;73.09;101010.59;5074942;28;20052;-64
2021/07/27 02:03:57;;;;;;;23.95;16.55;;;;;;;19.94;73.13;101014.50;5056682;28;20110;-64
2021/07/27 02:06:25;;;;;;;24.67;18.17;;;;;;;19.93;73.00;101012.88;5074789;28;20052;-64
2021/07/27 02:08:55;;;;;;;24.08;17.83;;;;;;;19.98;73.21;101007.16;5074366;28;20048;-64
2021/07/27 02:11:44;;;;;;;24.92;17.48;;;;;;;19.99;72.84;101008.81;5074377;28;20491;-64
2021/07/27 02:14:15;;;;;;;24.52;18.05;;;;;;;19.96;73.17;101000.34;5056415;28;20036;-64
2021/07/27 02:16:42;;;;;;;20.67;14.27;;;;;;;19.94;73.19;101000.69;5074235;28;20048;-64
2021/07/27 02:19:10;;;;;;;26.77;19.48;;;;;;;19.90;73.27;100996.13;5074126;28;20119;-65
2021/07/27 02:21:38;;;;;;;23.60;17.15;;;;;;;19.87;73.32;101003.13;5074493;28;20059;-63
2021/07/27 02:24:05;;;;;;;24.85;16.70;;;;;;;19.87;73.23;101007.84;5073949;28;20060;-64
2021/07/27 02:26:33;;;;;;;24.90;16.42;;;;;;;19.86;73.49;101006.22;5074304;28;20048;-64
2021/07/27 02:29:00;;;;;;;24.80;18.65;;;;;;;19.86;73.41;101001.50;5074203;28;20448;-64
2021/07/27 02:31:33;;;;;;;23.33;17.70;;;;;;;19.83;73.45;101004.91;5073911;28;20046;-64
2021/07/27 02:34:01;;;;;;;20.85;15.07;;;;;;;19.84;73.50;101011.25;5073415;28;20452;-64
2021/07/27 02:36:29;;;;;;;23.38;17.38;;;;;;;19.81;73.63;101015.47;5074063;28;20115;-63
2021/07/27 02:38:56;;;;;;;20.77;15.95;;;;;;;19.81;73.74;101009.16;5073865;28;20033;-64
2021/07/27 02:41:24;;;;;;;24.02;16.10;;;;;;;19.79;73.54;101009.47;5073920;28;20048;-64
2021/07/27 02:43:51;;;;;;;27.42;19.38;;;;;;;19.77;73.58;101011.75;5074075;28;20778;-64
2021/07/27 02:46:20;;;;;;;26.90;20.70;;;;;;;19.73;73.65;101014.34;5073252;28;20105;-64
2021/07/27 02:48:48;;;;;;;25.13;18.10;;;;;;;19.73;73.81;101016.31;5073842;28;20074;-64
2021/07/27 02:51:15;;;;;;;24.25;18.10;;;;;;;19.72;73.96;101022.97;5073536;28;20032;-62
2021/07/27 02:53:43;;;;;;;22.73;17.02;;;;;;;19.74;73.61;101026.22;5072906;28;20045;-64
2021/07/27 02:56:14;;;;;;;24.63;16.13;;;;;;;19.72;73.97;101020.19;5073588;28;20040;-64
2021/07/27 02:58:42;;;;;;;20.23;15.18;;;;;;;19.70;74.00;101017.78;5073270;28;20407;-64
2021/07/27 03:01:09;;;;;;;20.40;14.40;;;;;;;19.70;73.96;101022.47;5073518;28;20113;-65
2021/07/27 03:03:38;;;;;;;22.52;15.70;;;;;;;19.73;73.85;101013.53;5073244;28;20040;-63
2021/07/27 03:06:05;;;;;;;20.98;17.30;;;;;;;19.69;74.17;101020.84;5073543;28;20056;-64
2021/07/27 03:11:16;;;;;;;28.67;17.75;;;;;;;19.64;74.20;101018.22;5073227;28;20050;-64
2021/07/27 03:13:43;;;;;;;24.50;17.90;;;;;;;19.63;74.32;101016.63;5073018;28;20029;-64
2021/07/27 03:16:15;;;;;;;19.75;13.60;;;;;;;19.65;74.13;101019.84;5072621;28;20040;-64
2021/07/27 03:18:45;;;;;;;16.77;12.30;;;;;;;19.67;74.14;101020.34;5072949;28;20040;-64
2021/07/27 03:21:13;;;;;;;17.98;13.15;;;;;;;19.68;73.91;101022.00;5073180;28;20044;-64
2021/07/27 03:23:41;;;;;;;22.02;15.38;;;;;;;19.67;74.02;101029.44;5072549;28;20052;-64
2021/07/27 03:26:09;;;;;;;22.45;15.00;;;;;;;19.63;73.87;101027.66;5054452;28;20048;-63
2021/07/27 03:28:36;;;;;;;21.90;15.43;;;;;;;19.60;74.04;101026.34;5073276;28;20058;-64
2021/07/27 03:31:04;;;;;;;20.15;13.77;;;;;;;19.58;74.08;101025.88;5072289;28;20136;-65
2021/07/27 03:33:31;;;;;;;19.17;14.23;;;;;;;19.56;74.31;101026.19;5072942;28;20131;-64
2021/07/27 03:35:59;;;;;;;21.77;15.65;;;;;;;19.53;74.39;101017.72;5072854;28;20677;-62
2021/07/27 03:38:26;;;;;;;18.42;13.65;;;;;;;19.51;74.35;101015.28;5054832;28;20051;-64
2021/07/27 03:41:06;;;;;;;17.67;12.73;;;;;;;19.53;74.16;101021.31;5072968;28;20060;-62
2021/07/27 03:43:34;;;;;;;19.02;15.07;;;;;;;19.51;74.37;101029.13;5059579;28;20044;-64
2021/07/27 03:46:05;;;;;;;22.33;15.50;;;;;;;19.47;74.48;101019.84;5072306;28;20090;-65
2021/07/27 03:48:33;;;;;;;20.92;15.65;;;;;;;19.45;74.65;101019.34;5072408;28;20039;-64
2021/07/27 03:51:01;;;;;;;20.23;14.85;;;;;;;19.45;74.63;101021.28;5072333;28;20045;-60
2021/07/27 03:53:29;;;;;;;18.95;14.23;;;;;;;19.43;74.42;101024.38;5072412;28;20097;-58
2021/07/27 03:55:57;;;;;;;20.25;15.45;;;;;;;19.45;74.48;101024.06;5072832;28;20410;-60
2021/07/27 03:58:25;;;;;;;21.35;14.45;;;;;;;19.43;74.44;101018.84;5072234;28;20111;-65
2021/07/27 04:00:53;;;;;;;19.17;13.50;;;;;;;19.41;74.52;101026.66;5072442;28;20056;-64
2021/07/27 04:03:21;;;;;;;19.05;14.23;;;;;;;19.40;74.48;101025.03;5072032;28;20048;-65
2021/07/27 04:05:48;;;;;;;21.77;15.63;;;;;;;19.38;74.39;101024.53;5072384;28;20477;-64
2021/07/27 04:08:16;;;;;;;17.92;13.60;;;;;;;19.36;74.76;101026.78;5072258;28;20123;-64
2021/07/27 04:10:43;;;;;;;18.77;13.20;;;;;;;19.35;74.54;101026.00;5072592;28;20044;-64
2021/07/27 04:13:11;;;;;;;17.92;12.98;;;;;;;19.35;74.61;101039.00;5054325;28;20059;-64
2021/07/27 04:15:39;;;;;;;17.35;11.80;;;;;;;19.35;74.63;101034.28;5071760;28;20068;-64
2021/07/27 04:18:07;;;;;;;18.27;13.57;;;;;;;19.34;74.58;101032.66;5072301;28;20040;-65
2021/07/27 04:20:34;;;;;;;22.27;16.33;;;;;;;19.35;74.49;101025.19;5072008;28;20399;-63
2021/07/27 04:23:02;;;;;;;18.90;15.02;;;;;;;19.35;74.29;101022.41;5072282;28;20051;-62
2021/07/27 04:25:30;;;;;;;19.27;13.52;;;;;;;19.35;74.23;101023.22;5072064;28;20491;-64
2021/07/27 04:27:58;;;;;;;18.48;12.77;;;;;;;19.40;74.24;101029.75;5071634;28;20041;-64
2021/07/27 04:30:26;;;;;;;17.77;13.90;;;;;;;19.39;73.91;101025.38;5071803;28;20041;-64
2021/07/27 04:32:55;;;;;;;19.40;13.20;;;;;;;19.39;73.89;101023.41;5071525;28;20542;-62
2021/07/27 04:35:22;;;;;;;17.98;13.63;;;;;;;19.43;73.96;101023.56;5072202;28;20082;-60
2021/07/27 04:37:51;;;;;;;20.05;13.63;;;;;;;19.41;74.03;101023.91;5072089;28;20049;-63
2021/07/27 04:40:20;;;;;;;24.05;16.27;;;;;;;19.37;73.93;101020.16;5071835;28;20403;-61
2021/07/27 04:42:48;;;;;;;18.60;13.35;;;;;;;19.40;73.87;101030.56;5071474;28;20048;-65
2021/07/27 04:45:15;;;;;;;20.02;12.18;;;;;;;19.40;73.94;101019.50;5071870;28;20044;-64
2021/07/27 04:47:43;;;;;;;18.23;13.55;;;;;;;19.40;73.95;101019.50;5071985;28;20381;-63
2021/07/27 04:50:11;;;;;;;18.25;14.68;;;;;;;19.35;74.02;101022.41;5071957;28;20031;-63
2021/07/27 04:52:41;;;;;;;19.83;14.02;;;;;;;19.35;73.92;101016.91;5071594;28;20044;-62
2021/07/27 04:55:09;;;;;;;18.90;14.38;;;;;;;19.33;74.17;101013.63;5071731;28;20049;-64
2021/07/27 04:57:37;;;;;;;21.85;16.83;;;;;;;19.31;74.34;101013.97;5071586;28;20048;-64
2021/07/27 05:00:15;;;;;;;20.17;16.52;;;;;;;19.30;74.43;101015.09;5071673;28;20046;-64
2021/07/27 05:02:43;;;;;;;24.35;16.45;;;;;;;19.28;74.55;101011.03;5071917;28;20067;-62
2021/07/27 05:05:10;;;;;;;17.00;11.98;;;;;;;19.26;74.45;101011.34;5071632;28;20135;-58
2021/07/27 05:07:38;;;;;;;17.20;12.20;;;;;;;19.28;74.71;101013.78;5071606;28;20037;-65
2021/07/27 05:10:06;;;;;;;21.42;14.77;;;;;;;19.28;74.79;101002.75;5071504;28;20044;-65
2021/07/27 05:12:36;;;;;;;19.90;15.38;;;;;;;19.30;74.73;101008.75;5071164;28;20036;-64
2021/07/27 05:15:05;;;;;;;21.65;13.95;;;;;;;19.30;74.71;101008.75;5072202;28;20201;-64
2021/07/27 05:17:33;;;;;;;18.02;14.00;;;;;;;19.30;74.65;101009.56;5075226;28;20079;-64
2021/07/27 05:20:01;;;;;;;16.73;12.88;;;;;;;19.34;74.23;101015.28;5075475;28;20056;-64
2021/07/27 05:22:28;;;;;;;17.77;13.13;;;;;;;19.37;74.30;101015.44;5075267;28;20041;-65
2021/07/27 05:24:56;;;;;;;20.50;15.32;;;;;;;19.38;74.25;101016.25;5075143;28;20122;-62
2021/07/27 05:27:31;;;;;;;22.10;16.13;;;;;;;19.36;74.07;101012.97;4714714;28;9999783;-65
2021/07/27 05:29:59;;;;;;;18.63;14.63;;;;;;;19.37;74.01;101012.66;5074875;28;20043;-64
2021/07/27 05:32:26;;;;;;;18.98;13.93;;;;;;;19.38;74.35;101021.75;5074123;28;20043;-61
2021/07/27 05:34:54;;;;;;;21.67;14.13;;;;;;;19.39;74.09;101014.31;5072743;28;20415;-63
2021/07/27 05:37:22;;;;;;;17.40;12.88;;;;;;;19.40;74.02;101013.97;5072848;28;20044;-64
2021/07/27 05:39:50;;;;;;;20.50;14.18;;;;;;;19.42;73.93;101013.66;5071465;28;20570;-65
2021/07/27 05:42:18;;;;;;;20.73;15.57;;;;;;;19.41;73.82;101010.09;5072718;28;20061;-64
2021/07/27 05:44:45;;;;;;;21.58;14.30;;;;;;;19.46;73.94;101007.16;5055129;28;20044;-65
2021/07/27 05:47:13;;;;;;;20.70;14.02;;;;;;;19.50;73.55;101013.66;5073740;28;20048;-65
2021/07/27 05:49:41;;;;;;;21.48;15.48;;;;;;;19.53;73.53;101013.03;5072559;28;20071;-64
2021/07/27 05:52:12;;;;;;;19.88;14.77;;;;;;;19.55;73.65;101012.69;5054427;28;20056;-64
2021/07/27 05:54:40;;;;;;;23.30;14.98;;;;;;;19.55;73.57;101008.00;5071792;28;20052;-63
2021/07/27 05:57:14;;;;;;;22.38;15.95;;;;;;;19.65;72.92;101003.25;5070748;28;20043;-63
2021/07/27 05:59:42;;;;;;;22.88;17.38;;;;;;;19.63;73.34;101002.78;5072459;28;20062;-62
2021/07/27 06:02:15;;;;;;;25.75;18.55;;;;;;;19.56;73.93;101006.84;5063938;28;20044;-63
2021/07/27 06:04:43;;;;;;;22.88;16.30;;;;;;;19.55;73.86;101009.91;5054217;28;20040;-63
2021/07/27 06:07:11;;;;;;;21.83;15.60;;;;;;;19.56;73.84;101006.84;5071735;28;20036;-63
2021/07/27 06:09:38;;;;;;;23.05;15.25;;;;;;;19.55;73.73;101001.63;5071557;28;20051;-63
2021/07/27 06:12:09;;;;;;;16.30;11.70;;;;;;;19.61;73.81;101007.81;5071847;28;20045;-62
2021/07/27 06:14:36;;;;;;;18.52;12.75;;;;;;;19.62;73.65;101006.69;5071214;28;20040;-62
2021/07/27 06:17:09;;;;;;;17.95;11.80;;;;;;;19.65;73.22;101014.31;5053630;28;20097;-63
2021/07/27 06:19:37;;;;;;;16.33;11.15;;;;;;;19.63;73.10;101011.88;5071752;28;20079;-62
2021/07/27 06:22:05;;;;;;;19.70;12.07;;;;;;;19.68;72.79;101017.28;5071594;28;20067;-62
2021/07/27 06:24:32;;;;;;;15.20;10.75;;;;;;;19.73;72.55;101021.84;5070998;28;20041;-62
2021/07/27 06:27:00;;;;;;;17.85;11.88;;;;;;;19.71;72.37;101018.59;5063995;28;20048;-62
2021/07/27 06:29:27;;;;;;;21.80;13.95;;;;;;;19.73;72.47;101019.88;5073462;28;20037;-62
2021/07/27 06:31:55;;;;;;;21.23;14.30;;;;;;;19.65;73.11;101022.59;5073532;28;20063;-63
2021/07/27 06:34:22;;;;;;;16.90;11.35;;;;;;;19.58;73.45;101029.44;5073570;28;20061;-63
2021/07/27 06:36:50;;;;;;;19.63;14.35;;;;;;;19.56;73.48;101025.38;5073417;28;20047;-63
2021/07/27 06:39:17;;;;;;;19.85;12.38;;;;;;;19.57;73.50;101018.69;5072942;28;20040;-63
2021/07/27 06:41:45;;;;;;;20.08;13.88;;;;;;;19.59;73.63;101025.53;5073266;28;20474;-63
2021/07/27 06:44:12;;;;;;;20.85;15.75;;;;;;;19.55;73.88;101026.50;5073342;28;20047;-63
2021/07/27 06:46:40;;;;;;;24.38;16.27;;;;;;;19.49;74.21;101025.84;5073149;28;20071;-63
2021/07/27 06:49:07;;;;;;;20.48;15.70;;;;;;;19.43;74.43;101029.91;5073530;28;20407;-63
2021/07/27 06:51:35;;;;;;;22.83;15.07;;;;;;;19.45;74.72;101026.81;5073067;28;20052;-62
2021/07/27 06:54:02;;;;;;;25.65;15.73;;;;;;;19.48;74.33;101035.28;5072830;28;20044;-61
2021/07/27 06:56:30;;;;;;;17.17;11.57;;;;;;;19.51;74.16;101031.88;5072890;28;20128;-61
2021/07/27 06:59:00;;;;;;;19.23;12.63;;;;;;;19.57;74.14;101024.22;5070230;28;20048;-63
2021/07/27 07:01:28;;;;;;;20.52;12.85;;;;;;;19.60;74.02;101029.09;5055008;28;20302;-62
2021/07/27 07:03:56;;;;;;;17.92;12.65;;;;;;;19.64;73.96;101034.81;5072616;28;20575;-63
2021/07/27 07:06:23;;;;;;;19.67;12.15;;;;;;;19.64;73.93;101029.28;5072652;28;20499;-62
2021/07/27 07:08:51;;;;;;;19.33;12.10;;;;;;;19.69;73.60;101034.69;5072515;28;20044;-62
2021/07/27 07:11:18;;;;;;;17.25;12.40;;;;;;;19.75;72.84;101028.66;5073113;28;20067;-64
2021/07/27 07:13:46;;;;;;;17.50;9.27;;;;;;;19.74;72.57;101026.22;5073193;28;20117;-64
2021/07/27 07:16:14;;;;;;;20.30;13.13;;;;;;;19.84;72.57;101030.59;5072519;28;20048;-64
2021/07/27 07:18:41;;;;;;;21.55;12.55;;;;;;;19.88;72.54;101037.94;5072867;28;20106;-63
2021/07/27 07:21:09;;;;;;;21.83;15.20;;;;;;;19.82;72.93;101042.00;5072417;28;20044;-62
2021/07/27 07:23:36;;;;;;;21.65;13.50;;;;;;;19.79;73.37;101046.25;5072761;28;20048;-61
2021/07/27 07:26:05;;;;;;;22.27;10.95;;;;;;;19.79;73.19;101048.19;5072388;28;20040;-62
2021/07/27 07:28:34;;;;;;;20.55;13.23;;;;;;;19.76;73.78;101044.09;5065536;28;20037;-62
2021/07/27 07:31:03;;;;;;;18.27;11.30;;;;;;;19.83;73.25;101049.16;5072832;28;20037;-64
2021/07/27 07:33:30;;;;;;;20.85;11.65;;;;;;;19.93;72.34;101042.47;5072205;28;20392;-63
2021/07/27 07:35:58;;;;;;;20.05;11.75;;;;;;;19.99;72.78;101042.00;5072471;28;20062;-63
2021/07/27 07:38:25;;;;;;;23.27;12.35;;;;;;;19.99;72.44;101036.47;5071830;28;20044;-64
2021/07/27 07:40:53;;;;;;;22.75;13.65;;;;;;;20.09;72.57;101034.50;5072577;28;20052;-64
2021/07/27 07:43:20;;;;;;;17.90;11.07;;;;;;;20.03;72.20;101038.56;5072287;28;20033;-63
2021/07/27 07:45:48;;;;;;;20.45;11.77;;;;;;;19.97;72.92;101035.97;5072295;28;20407;-63
2021/07/27 07:48:16;;;;;;;20.85;11.63;;;;;;;19.99;72.74;101035.66;5071903;28;20063;-64
2021/07/27 07:50:44;;;;;;;18.40;10.45;;;;;;;20.00;72.60;101018.72;5053915;28;20449;-63
2021/07/27 07:53:12;;;;;;;22.15;13.35;;;;;;;20.04;72.43;101018.09;5071855;28;20483;-64
2021/07/27 07:55:40;;;;;;;18.45;11.73;;;;;;;20.07;72.60;101021.00;5071974;28;20049;-63
2021/07/27 07:58:07;;;;;;;21.33;12.90;;;;;;;20.13;72.90;101018.88;5071101;28;20051;-63
2021/07/27 08:00:35;;;;;;;20.92;15.18;;;;;;;20.14;72.82;101014.97;5071891;28;20391;-64
2021/07/27 08:03:03;;;;;;;18.52;11.00;;;;;;;20.16;72.17;101021.00;5071982;28;20138;-64
2021/07/27 08:05:31;;;;;;;16.52;11.50;;;;;;;20.26;71.56;101028.13;5071725;28;20040;-64
2021/07/27 08:07:58;;;;;;;22.02;14.20;;;;;;;20.33;71.94;101025.69;5071378;28;20041;-65
2021/07/27 08:10:26;;;;;;;20.05;11.88;;;;;;;20.41;70.96;101030.38;5053890;28;20040;-64
2021/07/27 08:12:55;;;;;;;24.00;15.30;;;;;;;20.36;71.12;101028.59;5072082;28;20044;-64
2021/07/27 08:15:26;;;;;;;16.38;11.15;;;;;;;20.30;71.33;101023.56;5071565;28;20051;-64
2021/07/27 08:17:54;;;;;;;19.08;12.35;;;;;;;20.31;71.00;101026.00;5071853;28;20052;-64
2021/07/27 08:20:22;;;;;;;16.38;10.30;;;;;;;20.36;71.14;101023.06;5071153;28;20040;-64
2021/07/27 08:22:49;;;;;;;15.73;10.00;;;;;;;20.36;71.12;101028.59;5071888;28;20131;-63
2021/07/27 08:25:18;;;;;;;19.52;11.93;;;;;;;20.38;71.03;101029.06;5072044;28;20036;-63
2021/07/27 08:27:47;;;;;;;13.60;9.00;;;;;;;20.37;70.30;101027.47;5073294;28;20055;-62
2021/07/27 08:30:15;;;;;;;18.80;10.75;;;;;;;20.45;70.01;101031.34;5073905;28;20041;-62
2021/07/27 08:32:51;;;;;;;16.48;9.70;;;;;;;20.48;69.71;101024.34;5072649;28;20047;-61
2021/07/27 08:35:20;;;;;;;18.75;11.45;;;;;;;20.45;68.89;101025.00;5073024;28;20136;-63
2021/07/27 08:37:49;;;;;;;16.05;9.95;;;;;;;20.49;68.57;101014.88;5071473;28;20487;-63
2021/07/27 08:40:18;;;;;;;15.63;8.70;;;;;;;20.56;69.32;101026.28;5053272;28;20125;-55
2021/07/27 08:42:47;;;;;;;17.50;11.20;;;;;;;20.62;69.34;101020.25;5071225;28;20056;-59
2021/07/27 08:45:15;;;;;;;16.10;10.18;;;;;;;20.61;69.16;101023.34;5071351;28;20032;-60
2021/07/27 08:47:47;;;;;;;15.40;7.93;;;;;;;20.64;68.83;101023.50;5071700;28;20044;-56
2021/07/27 08:50:17;;;;;;;15.73;10.07;;;;;;;20.67;68.86;101019.25;5070990;28;20050;-59
2021/07/27 08:52:44;;;;;;;16.98;11.73;;;;;;;20.67;68.77;101024.78;5075746;28;20051;-60
2021/07/27 08:55:13;;;;;;;13.77;8.38;;;;;;;20.66;68.97;101014.88;5075193;28;20041;-57
2021/07/27 08:57:57;;;;;;;17.58;9.60;;;;;;;20.78;67.89;101011.38;5074893;28;20051;-60
2021/07/27 09:00:26;;;;;;;15.63;10.32;;;;;;;20.75;67.65;101015.63;5075287;28;20850;-56
2021/07/27 09:02:54;;;;;;;15.20;10.38;;;;;;;20.79;66.97;101005.50;5075271;28;20048;-60
2021/07/27 09:05:22;;;;;;;16.05;11.20;;;;;;;20.79;66.70;101007.47;5074912;28;20090;-59
2021/07/27 09:07:50;;;;;;;17.05;8.65;;;;;;;20.83;67.17;101019.53;5065859;28;20059;-60
2021/07/27 09:10:20;;;;;;;16.77;9.73;;;;;;;20.93;66.67;101018.34;5057224;28;20054;-57
2021/07/27 09:12:54;;;;;;;17.67;11.15;;;;;;;20.94;66.83;101019.94;5075170;28;20044;-59
2021/07/27 09:15:23;;;;;;;12.25;6.63;;;;;;;20.96;67.65;101024.00;5075263;28;20036;-58
2021/07/27 09:17:52;;;;;;;10.23;6.28;;;;;;;20.99;67.41;101023.34;5074523;28;20044;-59
2021/07/27 09:20:39;;;;;;;19.02;10.18;;;;;;;21.02;66.33;101025.47;5073891;28;20052;-58
2021/07/27 09:23:27;;;;;;;18.88;11.68;;;;;;;21.04;66.06;101019.56;5077961;28;20040;-59
2021/07/27 09:25:57;;;;;;;15.70;10.95;;;;;;;21.06;65.39;101017.28;5074828;28;20048;-59
2021/07/27 09:28:25;;;;;;;22.55;11.98;;;;;;;21.24;64.17;101018.81;5074584;28;20466;-59
2021/07/27 09:31:00;;;;;;;16.80;11.23;;;;;;;21.24;64.44;101018.81;5040113;28;20051;-60
2021/07/27 09:33:35;;;;;;;11.53;7.33;;;;;;;21.41;65.75;101026.22;5074462;28;20127;-58
2021/07/27 09:36:04;;;;;;;16.83;10.70;;;;;;;21.39;62.94;101025.75;5074812;28;20059;-59
2021/07/27 09:38:32;;;;;;;17.05;10.45;;;;;;;21.35;62.66;101018.41;5074808;28;20036;-60
2021/07/27 09:41:04;;;;;;;11.20;7.00;;;;;;;21.33;63.77;101027.03;5056556;28;20102;-59
2021/07/27 09:43:44;;;;;;;15.05;9.13;;;;;;;21.42;63.20;101029.81;5074388;28;20044;-59
2021/07/27 09:46:11;;;;;;;14.20;8.60;;;;;;;21.47;63.84;101032.38;5074096;28;20044;-58
2021/07/27 09:48:41;;;;;;;17.73;11.68;;;;;;;21.51;63.49;101043.63;5040008;28;20053;-58
2021/07/27 09:51:09;;;;;;;14.73;9.55;;;;;;;21.38;63.02;101029.66;5074600;28;20225;-59
2021/07/27 09:53:38;;;;;;;15.88;10.60;;;;;;;21.41;63.33;101030.97;5074324;28;20054;-55
2021/07/27 09:56:08;;;;;;;15.60;10.82;;;;;;;21.38;63.09;101031.59;5074212;28;20059;-55
2021/07/27 09:58:36;;;;;;;16.50;10.80;;;;;;;21.31;62.81;101026.59;5073692;28;20044;-60
2021/07/27 10:01:16;;;;;;;17.08;10.70;;;;;;;21.23;62.29;101031.03;5074023;28;20049;-59
2021/07/27 10:03:56;;;;;;;18.48;10.30;;;;;;;21.20;63.02;101034.47;5056338;28;20141;-60
2021/07/27 10:06:30;;;;;;;17.45;10.40;;;;;;;21.26;63.73;101038.69;5056521;28;20368;-59
2021/07/27 10:08:59;;;;;;;17.30;11.25;;;;;;;21.28;63.81;101041.09;5074184;28;20045;-57
2021/07/27 10:11:44;;;;;;;11.13;7.13;;;;;;;21.30;64.22;101040.78;5056136;28;20044;-60
2021/07/27 10:14:13;;;;;;;11.80;7.65;;;;;;;21.32;63.69;101041.25;5073982;28;20086;-55
2021/07/27 10:16:42;;;;;;;12.23;6.90;;;;;;;21.35;64.49;101038.63;5073220;28;20052;-60
2021/07/27 10:19:20;;;;;;;15.32;9.35;;;;;;;21.40;63.27;101035.66;5073860;28;20045;-60
2021/07/27 10:22:00;;;;;;;12.18;7.25;;;;;;;21.51;65.58;101041.66;5074070;28;20149;-56
2021/07/27 10:24:36;;;;;;;13.35;7.60;;;;;;;21.45;64.59;101040.22;5073601;28;20090;-59
2021/07/27 10:27:08;;;;;;;;;;;;;;;21.51;66.62;101038.88;5073616;28;20131;-59
2021/07/27 10:29:35;;;;;;;16.73;9.40;;;;;;;21.53;63.93;101039.34;5073458;28;19970;-60
2021/07/27 10:32:16;;;;;;;13.82;9.60;;;;;;;21.47;64.47;101027.63;4370300;28;10000707;-60
2021/07/27 10:34:44;;;;;;;17.38;10.35;;;;;;;21.51;63.50;101027.78;5071231;28;20125;-58
2021/07/27 10:37:14;;;;;;;16.98;10.45;;;;;;;21.49;63.47;101027.31;5053565;28;20049;-57
2021/07/27 10:40:02;;;;;;;17.98;10.00;;;;;;;21.46;63.72;101037.13;5071560;28;20041;-62
2021/07/27 10:42:40;;;;;;;14.55;9.32;;;;;;;21.48;63.72;101048.69;5071144;28;20049;-59
2021/07/27 10:45:17;;;;;;;14.60;9.50;;;;;;;21.54;64.57;101052.06;5071049;28;20052;-58
2021/07/27 10:47:52;;;;;;;10.68;7.00;;;;;;;21.56;64.47;101048.97;5071351;28;20044;-60
2021/07/27 10:50:32;;;;;;;16.42;9.77;;;;;;;21.59;64.10;101045.50;5071172;28;20400;-58
2021/07/27 10:53:06;;;;;;;15.52;8.88;;;;;;;21.54;64.35;101043.75;5071109;28;20049;-61
2021/07/27 10:55:34;;;;;;;13.85;10.05;;;;;;;21.50;64.85;101048.31;5070894;28;20403;-59
2021/07/27 10:58:06;;;;;;;12.40;9.48;;;;;;;21.43;64.87;101042.50;5070738;28;20101;-60
2021/07/27 11:00:35;;;;;;;20.25;11.32;;;;;;;21.40;63.97;101054.28;5040201;28;20048;-61
2021/07/27 11:03:03;;;;;;;13.88;7.82;;;;;;;21.47;64.94;101057.31;5071055;28;20045;-61
2021/07/27 11:05:31;;;;;;;18.83;11.20;;;;;;;21.46;63.70;101053.75;5070706;28;20036;-61
2021/07/27 11:07:59;;;;;;;13.98;9.63;;;;;;;21.48;63.97;101061.75;5070707;28;20067;-61
2021/07/27 11:10:29;;;;;;;15.45;10.52;;;;;;;21.44;63.93;101071.88;5071124;28;20040;-61
2021/07/27 11:12:58;;;;;;;16.48;11.38;;;;;;;21.38;64.02;101070.38;5052987;28;20415;-60
2021/07/27 11:15:26;;;;;;;16.67;11.60;;;;;;;21.25;64.32;101086.13;5070269;28;20520;-60
2021/07/27 11:18:01;;;;;;;10.45;5.35;;;;;;;20.94;60.22;101091.97;5070595;28;20048;-60
2021/07/27 11:20:39;;;;;;;7.97;4.18;;;;;;;20.69;59.81;101096.47;5070410;28;20111;-60
2021/07/27 11:23:10;;;;;;;8.30;4.88;;;;;;;20.53;60.86;101093.38;5070770;28;20045;-59
2021/07/27 11:25:38;;;;;;;8.77;4.65;;;;;;;20.43;61.59;101088.97;5052974;28;20045;-60
2021/07/27 11:28:13;;;;;;;7.72;4.18;;;;;;;20.35;62.04;101098.94;5076281;28;20036;-61
2021/07/27 11:30:41;;;;;;;10.57;4.82;;;;;;;20.31;62.90;101097.94;5068923;28;20036;-59
2021/07/27 11:33:10;;;;;;;7.93;4.95;;;;;;;20.27;63.34;101096.97;5069828;28;20124;-60
2021/07/27 11:35:49;;;;;;;10.48;4.85;;;;;;;20.27;63.61;101094.19;5070425;28;20051;-60
2021/07/27 11:38:22;;;;;;;8.63;5.10;;;;;;;20.29;63.65;101100.22;5069985;28;20045;-60
2021/07/27 11:41:10;;;;;;;10.50;4.90;;;;;;;20.31;63.87;101092.41;5070245;28;20127;-58
2021/07/27 11:43:39;;;;;;;9.85;5.35;;;;;;;20.30;64.07;101093.56;5069602;28;20490;-60
2021/07/27 11:46:19;;;;;;;8.90;5.32;;;;;;;20.21;64.09;101092.75;5069862;28;20063;-59